Time;durP1;ratioP1;P1;durP2;ratioP2;P2;SDS_P1;SDS_P2;PMS_P1;PMS_P2;Temp;Humidity;BMP_temperature;BMP_pressure;BME280_temperature;BME280_humidity;BME280_pressure;Samples;Min_cycle;Max_cycle;Signal;HPM_P1;HPM_P2
2021/08/16 00:02:08;;;;;;;9.00;7.07;;;;;;;;;;143728;607;45019;-52
2021/08/16 00:04:35;;;;;;;10.02;6.35;;;;;;;;;;143730;604;46023;-53
2021/08/16 00:07:02;;;;;;;8.27;6.03;;;;;;;;;;143726;574;47018;-52
2021/08/16 00:09:29;;;;;;;10.18;7.18;;;;;;;;;;143726;680;46022;-53
2021/08/16 00:11:56;;;;;;;9.65;6.93;;;;;;;;;;143728;564;45912;-53
2021/08/16 00:14:23;;;;;;;10.02;6.78;;;;;;;;;;143730;577;46010;-53
2021/08/16 00:16:50;;;;;;;9.95;7.20;;;;;;;;;;143725;700;47019;-52
2021/08/16 00:19:17;;;;;;;14.05;7.68;;;;;;;;;;143726;565;46010;-53
2021/08/16 00:21:44;;;;;;;10.98;6.82;;;;;;;;;;143729;594;45018;-53
2021/08/16 00:24:11;;;;;;;9.50;6.32;;;;;;;;;;143730;582;46011;-53
2021/08/16 00:26:38;;;;;;;8.70;6.60;;;;;;;;;;143725;737;47019;-52
2021/08/16 00:29:05;;;;;;;10.25;7.32;;;;;;;;;;143727;615;46010;-53
2021/08/16 00:31:32;;;;;;;10.57;6.85;;;;;;;;;;143729;661;45018;-52
2021/08/16 00:33:59;;;;;;;10.40;7.32;;;;;;;;;;143730;565;46010;-53
2021/08/16 00:36:26;;;;;;;10.65;7.07;;;;;;;;;;143727;564;47018;-53
2021/08/16 00:38:53;;;;;;;7.68;6.05;;;;;;;;;;143726;886;46010;-53
2021/08/16 00:41:21;;;;;;;11.85;7.30;;;;;;;;;;143729;564;45019;-52
2021/08/16 00:43:48;;;;;;;13.00;7.22;;;;;;;;;;143728;569;46022;-52
2021/08/16 00:46:16;;;;;;;9.63;6.82;;;;;;;;;;143724;573;47020;-53
2021/08/16 00:48:43;;;;;;;14.18;7.05;;;;;;;;;;143727;620;46029;-53
2021/08/16 00:51:11;;;;;;;8.50;6.28;;;;;;;;;;143729;587;45018;-52
2021/08/16 00:53:40;;;;;;;14.90;6.80;;;;;;;;;;143729;570;46022;-53
2021/08/16 00:56:08;;;;;;;13.38;7.32;;;;;;;;;;143724;620;47018;-53
2021/08/16 00:58:35;;;;;;;11.12;7.10;;;;;;;;;;143726;599;46010;-53
2021/08/16 01:01:03;;;;;;;10.52;6.90;;;;;;;;;;143728;597;46018;-53
2021/08/16 01:03:30;;;;;;;12.32;6.75;;;;;;;;;;143729;636;46023;-52
2021/08/16 01:05:58;;;;;;;12.35;6.93;;;;;;;;;;143726;605;47018;-53
2021/08/16 01:08:26;;;;;;;10.90;7.25;;;;;;;;;;143727;610;46010;-52
2021/08/16 01:10:54;;;;;;;11.95;6.62;;;;;;;;;;143729;623;45019;-53
2021/08/16 01:13:22;;;;;;;9.07;6.82;;;;;;;;;;143730;597;46010;-53
2021/08/16 01:16:01;;;;;;;14.43;7.22;;;;;;;;;;143725;586;47020;-52
2021/08/16 01:18:32;;;;;;;14.35;7.05;;;;;;;;;;143725;624;47010;-52
2021/08/16 01:21:01;;;;;;;12.82;8.73;;;;;;;;;;143727;587;47012;-52
2021/08/16 01:23:28;;;;;;;11.73;7.03;;;;;;;;;;143729;624;46010;-53
2021/08/16 01:25:55;;;;;;;12.40;6.55;;;;;;;;;;143726;569;47019;-52
2021/08/16 01:28:24;;;;;;;11.55;6.85;;;;;;;;;;143725;580;47010;-53
2021/08/16 01:31:03;;;;;;;9.43;6.90;;;;;;;;;;143728;599;45020;-53
2021/08/16 01:33:31;;;;;;;9.30;6.82;;;;;;;;;;143730;639;46023;-52
2021/08/16 01:35:58;;;;;;;13.00;7.18;;;;;;;;;;143725;811;47018;-52
2021/08/16 01:38:30;;;;;;;8.75;6.72;;;;;;;;;;143726;659;46025;-52
2021/08/16 01:40:57;;;;;;;12.30;7.00;;;;;;;;;;143729;654;45019;-53
2021/08/16 01:43:25;;;;;;;8.75;6.20;;;;;;;;;;143730;618;46023;-53
2021/08/16 01:45:52;;;;;;;10.43;6.82;;;;;;;;;;143725;607;47020;-52
2021/08/16 01:48:19;;;;;;;9.88;6.43;;;;;;;;;;143724;597;47010;-53
2021/08/16 01:50:47;;;;;;;10.95;6.95;;;;;;;;;;143728;767;45018;-53
2021/08/16 01:53:14;;;;;;;13.45;6.85;;;;;;;;;;143730;626;46010;-52
2021/08/16 01:55:41;;;;;;;11.48;6.68;;;;;;;;;;143725;620;47018;-53
2021/08/16 01:58:09;;;;;;;12.40;7.43;;;;;;;;;;143727;592;46023;-53
2021/08/16 02:00:37;;;;;;;11.10;6.87;;;;;;;;;;143726;586;46018;-53
2021/08/16 02:03:05;;;;;;;11.07;6.68;;;;;;;;;;143730;614;46010;-52
2021/08/16 02:05:32;;;;;;;12.23;6.78;;;;;;;;;;143725;582;47018;-52
2021/08/16 02:08:00;;;;;;;13.40;6.28;;;;;;;;;;143727;626;47010;-53
2021/08/16 02:10:28;;;;;;;10.43;7.07;;;;;;;;;;143730;567;45019;-53
2021/08/16 02:12:54;;;;;;;14.38;7.57;;;;;;;;;;143729;643;46010;-52
2021/08/16 02:15:21;;;;;;;14.93;7.28;;;;;;;;;;143725;649;47018;-53
2021/08/16 02:17:48;;;;;;;9.65;6.62;;;;;;;;;;143727;588;46010;-52
2021/08/16 02:20:15;;;;;;;10.82;7.05;;;;;;;;;;143729;610;45018;-53
2021/08/16 02:22:43;;;;;;;13.18;7.15;;;;;;;;;;143730;607;46022;-53
2021/08/16 02:25:10;;;;;;;10.48;6.72;;;;;;;;;;143725;569;47019;-52
2021/08/16 02:27:43;;;;;;;13.52;7.30;;;;;;;;;;143726;762;47010;-52
2021/08/16 02:30:11;;;;;;;13.30;7.18;;;;;;;;;;143730;597;45018;-53
2021/08/16 02:32:38;;;;;;;9.75;6.82;;;;;;;;;;143730;587;46023;-53
2021/08/16 02:35:05;;;;;;;14.00;6.93;;;;;;;;;;143725;591;47018;-53
2021/08/16 02:37:32;;;;;;;9.50;6.53;;;;;;;;;;143725;605;47010;-52
2021/08/16 02:39:59;;;;;;;9.50;6.78;;;;;;;;;;143727;622;46019;-52
2021/08/16 02:42:26;;;;;;;13.70;6.87;;;;;;;;;;143730;567;46022;-52
2021/08/16 02:44:54;;;;;;;8.27;6.70;;;;;;;;;;143726;565;47018;-54
2021/08/16 02:47:22;;;;;;;13.68;6.72;;;;;;;;;;143724;609;47010;-53
2021/08/16 02:49:49;;;;;;;14.55;7.55;;;;;;;;;;143724;583;47010;-52
2021/08/16 02:52:17;;;;;;;11.30;6.85;;;;;;;;;;143730;575;46022;-52
2021/08/16 02:54:47;;;;;;;11.98;6.87;;;;;;;;;;143727;574;47018;-52
2021/08/16 02:57:14;;;;;;;12.07;7.87;;;;;;;;;;143726;642;46010;-53
2021/08/16 02:59:42;;;;;;;11.63;6.75;;;;;;;;;;143729;618;45018;-53
2021/08/16 03:02:09;;;;;;;18.05;7.60;;;;;;;;;;143727;620;49010;-53
2021/08/16 03:04:36;;;;;;;13.98;6.62;;;;;;;;;;143726;614;47018;-52
2021/08/16 03:07:04;;;;;;;10.77;6.70;;;;;;;;;;143727;574;46010;-53
2021/08/16 03:09:32;;;;;;;13.38;6.90;;;;;;;;;;143728;565;46013;-52
2021/08/16 03:11:59;;;;;;;12.45;6.85;;;;;;;;;;143726;586;50010;-53
2021/08/16 03:14:25;;;;;;;17.40;6.62;;;;;;;;;;143724;607;47018;-52
2021/08/16 03:16:53;;;;;;;9.30;6.10;;;;;;;;;;143725;607;47011;-53
2021/08/16 03:19:20;;;;;;;10.02;6.20;;;;;;;;;;143728;569;45018;-53
2021/08/16 03:21:47;;;;;;;9.25;6.47;;;;;;;;;;143729;622;47022;-53
2021/08/16 03:24:14;;;;;;;10.98;7.20;;;;;;;;;;143724;575;47019;-53
2021/08/16 03:26:41;;;;;;;11.32;7.15;;;;;;;;;;143724;587;47010;-53
2021/08/16 03:29:08;;;;;;;10.95;6.30;;;;;;;;;;143728;623;45018;-53
2021/08/16 03:31:36;;;;;;;13.90;6.85;;;;;;;;;;143729;625;46022;-53
2021/08/16 03:34:03;;;;;;;12.02;6.60;;;;;;;;;;143727;684;47018;-53
2021/08/16 03:36:31;;;;;;;11.80;6.87;;;;;;;;;;143726;579;47010;-53
2021/08/16 03:38:58;;;;;;;13.57;7.00;;;;;;;;;;143729;573;45019;-53
2021/08/16 03:41:25;;;;;;;9.63;7.05;;;;;;;;;;143730;598;46022;-53
2021/08/16 03:43:52;;;;;;;19.30;7.25;;;;;;;;;;143726;576;47018;-52
2021/08/16 03:46:19;;;;;;;11.88;6.57;;;;;;;;;;143727;700;46011;-53
2021/08/16 03:48:46;;;;;;;12.55;7.55;;;;;;;;;;143729;630;45018;-53
2021/08/16 03:51:13;;;;;;;12.48;7.18;;;;;;;;;;143731;602;46022;-52
2021/08/16 03:53:41;;;;;;;11.15;6.35;;;;;;;;;;143725;580;47019;-53
2021/08/16 03:56:10;;;;;;;10.77;6.40;;;;;;;;;;143726;599;47010;-53
2021/08/16 03:58:41;;;;;;;11.40;6.78;;;;;;;;;;143728;587;45913;-53
2021/08/16 04:01:11;;;;;;;10.02;6.85;;;;;;;;;;143731;710;46011;-52
2021/08/16 04:03:41;;;;;;;9.73;6.85;;;;;;;;;;143725;571;47018;-53
2021/08/16 04:06:08;;;;;;;9.55;6.78;;;;;;;;;;143727;636;47010;-53
2021/08/16 04:08:38;;;;;;;12.68;7.18;;;;;;;;;;143730;595;45019;-53
2021/08/16 04:11:07;;;;;;;10.60;7.87;;;;;;;;;;143731;573;46023;-53
2021/08/16 04:13:35;;;;;;;13.43;7.10;;;;;;;;;;143726;610;47018;-53
2021/08/16 04:16:03;;;;;;;10.55;7.12;;;;;;;;;;143727;623;46921;-53
2021/08/16 04:18:30;;;;;;;12.30;7.18;;;;;;;;;;143728;590;45018;-52
2021/08/16 04:20:58;;;;;;;11.65;6.43;;;;;;;;;;143730;570;46010;-52
2021/08/16 04:23:25;;;;;;;11.43;7.12;;;;;;;;;;143725;602;47019;-52
2021/08/16 04:25:52;;;;;;;12.48;7.20;;;;;;;;;;143728;566;46010;-52
2021/08/16 04:28:19;;;;;;;14.65;7.18;;;;;;;;;;143729;614;45018;-53
2021/08/16 04:30:46;;;;;;;14.75;6.85;;;;;;;;;;143729;660;46010;-53
2021/08/16 04:33:14;;;;;;;13.93;7.28;;;;;;;;;;143727;603;47018;-53
2021/08/16 04:35:41;;;;;;;15.10;7.70;;;;;;;;;;143728;569;46027;-51
2021/08/16 04:38:08;;;;;;;12.73;7.80;;;;;;;;;;143731;580;45019;-53
2021/08/16 04:40:35;;;;;;;18.05;7.97;;;;;;;;;;143731;687;46010;-52
2021/08/16 04:43:02;;;;;;;11.02;7.03;;;;;;;;;;143724;569;47018;-53
2021/08/16 04:45:29;;;;;;;19.87;7.62;;;;;;;;;;143725;566;47010;-52
2021/08/16 04:47:56;;;;;;;12.77;8.13;;;;;;;;;;143728;587;45018;-53
2021/08/16 04:50:23;;;;;;;12.50;6.93;;;;;;;;;;143730;585;46010;-53
2021/08/16 04:52:50;;;;;;;17.65;7.55;;;;;;;;;;143727;577;47019;-52
2021/08/16 04:55:17;;;;;;;29.48;9.23;;;;;;;;;;143728;678;46010;-52
2021/08/16 04:57:44;;;;;;;15.40;7.18;;;;;;;;;;143730;611;45018;-53
2021/08/16 05:00:13;;;;;;;12.18;6.62;;;;;;;;;;143729;595;46022;-52
2021/08/16 05:02:41;;;;;;;16.12;6.97;;;;;;;;;;143727;586;47027;-53
2021/08/16 05:05:11;;;;;;;10.48;7.05;;;;;;;;;;143728;598;46010;-52
2021/08/16 05:07:39;;;;;;;16.98;8.18;;;;;;;;;;143728;579;45913;-52
2021/08/16 05:10:07;;;;;;;16.83;7.53;;;;;;;;;;143730;613;46022;-52
2021/08/16 05:12:36;;;;;;;16.55;7.57;;;;;;;;;;143726;595;47018;-52
2021/08/16 05:15:04;;;;;;;25.05;7.93;;;;;;;;;;143726;608;47023;-51
2021/08/16 05:17:32;;;;;;;17.12;7.78;;;;;;;;;;143728;605;45019;-52
2021/08/16 05:20:00;;;;;;;21.30;8.50;;;;;;;;;;143731;564;46010;-52
2021/08/16 05:22:27;;;;;;;14.20;7.03;;;;;;;;;;143728;600;47019;-52
2021/08/16 05:24:54;;;;;;;12.88;8.18;;;;;;;;;;143725;662;47010;-52
2021/08/16 05:27:21;;;;;;;13.98;7.50;;;;;;;;;;143730;576;45018;-52
2021/08/16 05:29:48;;;;;;;15.98;8.25;;;;;;;;;;143732;574;46022;-53
2021/08/16 05:32:16;;;;;;;11.95;7.10;;;;;;;;;;143726;643;48018;-52
2021/08/16 05:34:44;;;;;;;11.05;7.62;;;;;;;;;;143727;569;47010;-53
2021/08/16 05:37:11;;;;;;;18.42;7.87;;;;;;;;;;143730;567;45019;-54
2021/08/16 05:39:38;;;;;;;15.10;7.35;;;;;;;;;;143732;589;46010;-53
2021/08/16 05:42:05;;;;;;;17.80;8.00;;;;;;;;;;143727;575;47018;-54
2021/08/16 05:44:33;;;;;;;15.68;7.75;;;;;;;;;;143729;593;46010;-54
2021/08/16 05:47:05;;;;;;;12.50;7.22;;;;;;;;;;143731;570;45019;-54
2021/08/16 05:49:32;;;;;;;13.27;8.23;;;;;;;;;;143732;578;46022;-54
2021/08/16 05:51:59;;;;;;;18.35;7.85;;;;;;;;;;143728;632;47018;-53
2021/08/16 05:54:27;;;;;;;13.62;7.90;;;;;;;;;;143728;716;46010;-54
2021/08/16 05:56:54;;;;;;;18.42;8.13;;;;;;;;;;143731;637;45018;-54
2021/08/16 05:59:21;;;;;;;11.82;8.25;;;;;;;;;;143731;635;46022;-53
2021/08/16 06:01:48;;;;;;;14.48;7.68;;;;;;;;;;143727;687;47018;-53
2021/08/16 06:04:15;;;;;;;19.55;8.55;;;;;;;;;;143728;631;46010;-53
2021/08/16 06:06:42;;;;;;;11.12;8.00;;;;;;;;;;143731;578;45019;-53
2021/08/16 06:09:09;;;;;;;13.15;7.82;;;;;;;;;;143732;570;46023;-52
2021/08/16 06:11:36;;;;;;;10.60;7.07;;;;;;;;;;143728;612;47018;-53
2021/08/16 06:14:03;;;;;;;13.43;7.30;;;;;;;;;;143728;565;46010;-54
2021/08/16 06:16:30;;;;;;;11.10;7.05;;;;;;;;;;143731;564;45019;-54
2021/08/16 06:18:57;;;;;;;15.20;7.47;;;;;;;;;;143732;571;46022;-54
2021/08/16 06:21:24;;;;;;;11.15;7.03;;;;;;;;;;143727;569;47020;-54
2021/08/16 06:23:52;;;;;;;11.65;7.47;;;;;;;;;;143729;581;47010;-54
2021/08/16 06:26:19;;;;;;;12.00;6.72;;;;;;;;;;143731;571;45018;-54
2021/08/16 06:28:46;;;;;;;8.68;6.72;;;;;;;;;;143732;572;46011;-54
2021/08/16 06:31:13;;;;;;;9.30;5.82;;;;;;;;;;143727;572;47018;-54
2021/08/16 06:33:41;;;;;;;12.43;9.27;;;;;;;;;;143726;608;46010;-53
2021/08/16 06:36:09;;;;;;;13.62;7.78;;;;;;;;;;143730;631;45018;-53
2021/08/16 06:38:36;;;;;;;12.73;9.20;;;;;;;;;;143732;636;46023;-53
2021/08/16 06:41:03;;;;;;;15.43;10.65;;;;;;;;;;143728;588;47018;-53
2021/08/16 06:43:32;;;;;;;12.07;9.98;;;;;;;;;;143729;591;46022;-53
2021/08/16 06:46:00;;;;;;;11.25;8.05;;;;;;;;;;143729;594;45019;-54
2021/08/16 06:48:27;;;;;;;12.48;8.65;;;;;;;;;;143732;572;46022;-54
2021/08/16 06:50:54;;;;;;;11.82;7.78;;;;;;;;;;143728;578;47018;-53
2021/08/16 06:53:21;;;;;;;12.13;8.40;;;;;;;;;;143730;579;46010;-54
2021/08/16 06:55:50;;;;;;;10.95;6.53;;;;;;;;;;143731;592;45018;-53
2021/08/16 06:58:17;;;;;;;11.63;8.30;;;;;;;;;;143732;644;46010;-53
2021/08/16 07:00:44;;;;;;;16.05;8.70;;;;;;;;;;143727;602;47019;-53
2021/08/16 07:03:11;;;;;;;13.62;7.45;;;;;;;;;;143726;672;47010;-53
2021/08/16 07:05:42;;;;;;;13.52;6.30;;;;;;;;;;143730;655;45018;-54
2021/08/16 07:08:10;;;;;;;12.35;6.55;;;;;;;;;;143730;623;46023;-53
2021/08/16 07:10:37;;;;;;;10.63;7.50;;;;;;;;;;143727;631;47018;-53
2021/08/16 07:13:04;;;;;;;8.80;6.57;;;;;;;;;;143727;575;46010;-53
2021/08/16 07:15:31;;;;;;;9.60;6.47;;;;;;;;;;143730;581;45019;-54
2021/08/16 07:17:59;;;;;;;11.30;7.68;;;;;;;;;;143732;607;46022;-52
2021/08/16 07:20:27;;;;;;;14.98;9.27;;;;;;;;;;143729;607;46042;-52
2021/08/16 07:22:54;;;;;;;14.40;9.68;;;;;;;;;;143729;612;46010;-51
2021/08/16 07:25:21;;;;;;;10.27;6.55;;;;;;;;;;143730;612;46018;-52
2021/08/16 07:27:48;;;;;;;8.75;6.20;;;;;;;;;;143732;601;46022;-52
2021/08/16 07:30:15;;;;;;;13.45;6.62;;;;;;;;;;143731;570;47018;-52
2021/08/16 07:32:42;;;;;;;8.82;6.60;;;;;;;;;;143727;588;46010;-51
2021/08/16 07:35:09;;;;;;;10.90;6.25;;;;;;;;;;143728;604;46018;-52
2021/08/16 07:37:36;;;;;;;9.98;6.25;;;;;;;;;;143732;613;46023;-52
2021/08/16 07:40:03;;;;;;;11.43;6.00;;;;;;;;;;143729;597;47018;-52
2021/08/16 07:42:30;;;;;;;10.90;6.82;;;;;;;;;;143728;610;47010;-52
2021/08/16 07:44:57;;;;;;;10.98;7.55;;;;;;;;;;143729;589;45019;-52
2021/08/16 07:47:24;;;;;;;11.95;7.93;;;;;;;;;;143732;597;46010;-51
2021/08/16 07:49:51;;;;;;;11.50;6.22;;;;;;;;;;143727;742;47018;-52
2021/08/16 07:52:18;;;;;;;8.93;6.07;;;;;;;;;;143728;589;46027;-51
2021/08/16 07:54:45;;;;;;;12.52;6.65;;;;;;;;;;143730;819;45018;-51
2021/08/16 07:57:12;;;;;;;9.40;6.20;;;;;;;;;;143733;650;46010;-52
2021/08/16 07:59:39;;;;;;;18.50;6.70;;;;;;;;;;143726;609;47019;-51
2021/08/16 08:02:06;;;;;;;8.35;5.68;;;;;;;;;;143728;587;47010;-51
2021/08/16 08:04:33;;;;;;;8.82;5.97;;;;;;;;;;143732;590;45018;-51
2021/08/16 08:07:01;;;;;;;9.32;5.68;;;;;;;;;;143731;569;46022;-51
2021/08/16 08:09:30;;;;;;;8.63;5.87;;;;;;;;;;143727;641;47018;-51
2021/08/16 08:11:59;;;;;;;9.70;6.25;;;;;;;;;;143728;582;47010;-52
2021/08/16 08:14:26;;;;;;;16.10;6.75;;;;;;;;;;143730;644;45019;-51
2021/08/16 08:16:54;;;;;;;9.40;6.25;;;;;;;;;;143732;641;46010;-52
2021/08/16 08:19:21;;;;;;;9.50;6.00;;;;;;;;;;143726;639;47018;-52
2021/08/16 08:21:47;;;;;;;10.75;6.50;;;;;;;;;;143728;644;46010;-52
2021/08/16 08:24:14;;;;;;;10.10;6.00;;;;;;;;;;143730;656;45018;-52
2021/08/16 08:26:42;;;;;;;8.55;6.20;;;;;;;;;;143732;575;46010;-52
2021/08/16 08:29:08;;;;;;;10.38;5.93;;;;;;;;;;143730;588;45020;-51
2021/08/16 08:31:41;;;;;;;9.52;6.05;;;;;;;;;;143724;573;47010;-52
2021/08/16 08:34:08;;;;;;;7.53;5.00;;;;;;;;;;143731;572;45018;-51
2021/08/16 08:36:35;;;;;;;8.02;5.30;;;;;;;;;;143731;564;47010;-52
2021/08/16 08:39:03;;;;;;;13.38;6.12;;;;;;;;;;143729;593;47018;-51
2021/08/16 08:41:31;;;;;;;9.90;5.55;;;;;;;;;;143726;564;47010;-52
2021/08/16 08:43:59;;;;;;;9.43;6.00;;;;;;;;;;143729;582;45913;-51
2021/08/16 08:46:28;;;;;;;8.90;5.85;;;;;;;;;;143732;577;46010;-51
2021/08/16 08:48:55;;;;;;;8.52;5.72;;;;;;;;;;143727;589;47018;-52
2021/08/16 08:51:22;;;;;;;6.87;5.25;;;;;;;;;;143727;569;47011;-51
2021/08/16 08:53:51;;;;;;;7.60;4.93;;;;;;;;;;143731;562;45018;-51
2021/08/16 08:56:18;;;;;;;8.45;5.50;;;;;;;;;;143732;585;46010;-51
2021/08/16 08:58:45;;;;;;;8.63;5.90;;;;;;;;;;143726;588;47020;-51
2021/08/16 09:01:12;;;;;;;7.95;4.85;;;;;;;;;;143727;611;47010;-52
2021/08/16 09:03:53;;;;;;;7.32;5.28;;;;;;;;;;143732;563;45018;-51
2021/08/16 09:06:31;;;;;;;7.40;5.12;;;;;;;;;;143732;631;46022;-52
2021/08/16 09:08:59;;;;;;;12.63;5.37;;;;;;;;;;143727;641;47034;-52
2021/08/16 09:11:28;;;;;;;8.95;5.20;;;;;;;;;;143728;575;46028;-51
2021/08/16 09:13:59;;;;;;;7.68;5.03;;;;;;;;;;143728;585;46010;-51
2021/08/16 09:16:28;;;;;;;8.38;5.40;;;;;;;;;;143733;595;46010;-51
2021/08/16 09:18:56;;;;;;;7.45;5.50;;;;;;;;;;143726;602;47020;-51
2021/08/16 09:21:39;;;;;;;9.40;5.10;;;;;;;;;;143728;592;46027;-51
2021/08/16 09:24:06;;;;;;;9.55;5.43;;;;;;;;;;143731;614;45018;-52
2021/08/16 09:26:37;;;;;;;10.05;5.15;;;;;;;;;;143730;574;46022;-51
2021/08/16 09:29:15;;;;;;;11.65;5.55;;;;;;;;;;143726;587;47018;-52
2021/08/16 09:32:03;;;;;;;11.80;5.10;;;;;;;;;;143728;619;47010;-52
2021/08/16 09:34:35;;;;;;;8.00;5.20;;;;;;;;;;143744;597;45019;-51
2021/08/16 09:37:23;;;;;;;9.20;5.22;;;;;;;;;;143741;636;49016;-52
2021/08/16 09:40:08;;;;;;;8.82;5.18;;;;;;;;;;143744;588;47018;-52
2021/08/16 09:42:48;;;;;;;7.65;5.22;;;;;;;;;;143741;564;47011;-52
2021/08/16 09:45:39;;;;;;;8.02;5.20;;;;;;;;;;143743;600;45019;-51
2021/08/16 09:48:07;;;;;;;6.93;5.03;;;;;;;;;;143746;610;46010;-51
2021/08/16 09:50:45;;;;;;;7.12;4.87;;;;;;;;;;143742;623;47019;-51
2021/08/16 09:53:17;;;;;;;10.50;4.78;;;;;;;;;;143740;601;47010;-52
2021/08/16 09:55:46;;;;;;;8.05;5.10;;;;;;;;;;143743;594;45018;-52
2021/08/16 09:58:15;;;;;;;7.37;4.85;;;;;;;;;;143746;596;45023;-52
2021/08/16 10:00:44;;;;;;;6.20;4.78;;;;;;;;;;143742;564;48018;-52
2021/08/16 10:03:12;;;;;;;8.32;5.43;;;;;;;;;;143741;581;46010;-52
2021/08/16 10:05:40;;;;;;;7.68;5.03;;;;;;;;;;143742;606;45019;-53
2021/08/16 10:08:12;;;;;;;6.35;4.68;;;;;;;;;;143744;605;46020;-52
2021/08/16 10:10:41;;;;;;;8.50;5.00;;;;;;;;;;143740;588;47018;-53
2021/08/16 10:13:09;;;;;;;7.85;4.95;;;;;;;;;;143740;575;46010;-52
2021/08/16 10:15:42;;;;;;;6.60;4.65;;;;;;;;;;143743;606;45018;-53
2021/08/16 10:18:11;;;;;;;;;;;;;;;;;;143750;980;46022;-53
2021/08/16 10:20:40;;;;;;;7.53;5.57;;;;;;;;;;143747;598;47019;-52
2021/08/16 10:23:45;;;;;;;8.63;4.72;;;;;;;;;;143741;572;46010;-52
2021/08/16 10:26:22;;;;;;;7.28;4.57;;;;;;;;;;143743;610;45020;-52
2021/08/16 10:28:54;;;;;;;8.77;4.80;;;;;;;;;;143745;610;45023;-53
2021/08/16 10:31:30;;;;;;;6.90;4.55;;;;;;;;;;143739;586;47020;-53
2021/08/16 10:33:57;;;;;;;12.05;4.53;;;;;;;;;;143738;633;47011;-53
2021/08/16 10:36:25;;;;;;;7.53;4.60;;;;;;;;;;143743;590;45019;-53
2021/08/16 10:38:56;;;;;;;6.00;4.50;;;;;;;;;;143744;644;46022;-54
2021/08/16 10:41:30;;;;;;;6.28;4.60;;;;;;;;;;143741;646;47018;-53
2021/08/16 10:44:09;;;;;;;7.18;4.35;;;;;;;;;;143739;627;47030;-53
2021/08/16 10:46:36;;;;;;;8.20;4.47;;;;;;;;;;143743;610;45018;-53
2021/08/16 10:49:06;;;;;;;9.13;4.97;;;;;;;;;;143744;564;46022;-54
2021/08/16 10:51:48;;;;;;;8.68;4.75;;;;;;;;;;143739;564;47021;-53
2021/08/16 10:54:33;;;;;;;6.15;4.50;;;;;;;;;;143741;570;46010;-54
2021/08/16 10:57:01;;;;;;;6.53;4.37;;;;;;;;;;143741;610;45019;-53
2021/08/16 10:59:30;;;;;;;7.80;4.68;;;;;;;;;;143744;573;46023;-53
2021/08/16 11:01:58;;;;;;;5.25;4.12;;;;;;;;;;143739;569;47020;-54
2021/08/16 11:04:36;;;;;;;9.18;4.85;;;;;;;;;;143740;617;46028;-54
2021/08/16 11:07:08;;;;;;;11.05;4.65;;;;;;;;;;143741;672;45019;-53
2021/08/16 11:09:37;;;;;;;8.85;4.70;;;;;;;;;;143744;583;45022;-54
2021/08/16 11:12:09;;;;;;;7.55;4.50;;;;;;;;;;143739;566;47020;-54
2021/08/16 11:14:41;;;;;;;16.83;4.70;;;;;;;;;;143740;589;46010;-53
2021/08/16 11:17:08;;;;;;;8.20;3.97;;;;;;;;;;143741;637;45018;-54
2021/08/16 11:19:46;;;;;;;7.85;4.72;;;;;;;;;;143744;570;46022;-54
2021/08/16 11:22:14;;;;;;;7.45;5.00;;;;;;;;;;143739;604;47018;-53
2021/08/16 11:24:45;;;;;;;6.87;4.40;;;;;;;;;;143739;589;47010;-54
2021/08/16 11:27:21;;;;;;;6.47;4.37;;;;;;;;;;143739;612;46019;-53
2021/08/16 11:30:04;;;;;;;6.55;4.60;;;;;;;;;;143744;569;46023;-54
2021/08/16 11:32:32;;;;;;;6.12;4.68;;;;;;;;;;143735;601;48018;-53
2021/08/16 11:35:00;;;;;;;6.45;4.72;;;;;;;;;;143727;570;46029;-54
2021/08/16 11:37:29;;;;;;;5.03;4.15;;;;;;;;;;143729;577;45018;-54
2021/08/16 11:39:57;;;;;;;5.93;4.50;;;;;;;;;;143730;599;46012;-53
2021/08/16 11:42:25;;;;;;;8.63;4.70;;;;;;;;;;143725;608;47020;-54
2021/08/16 11:45:01;;;;;;;7.85;4.70;;;;;;;;;;143726;596;46010;-53
2021/08/16 11:47:36;;;;;;;8.07;4.62;;;;;;;;;;143728;569;46027;-54
2021/08/16 11:50:22;;;;;;;7.00;4.75;;;;;;;;;;143728;623;46023;-54
2021/08/16 11:52:51;;;;;;;7.82;4.90;;;;;;;;;;143725;564;47018;-54
2021/08/16 11:55:38;;;;;;;6.28;4.57;;;;;;;;;;143725;623;47010;-53
2021/08/16 11:58:05;;;;;;;8.02;4.90;;;;;;;;;;143726;668;45021;-53
2021/08/16 12:00:36;;;;;;;7.22;4.35;;;;;;;;;;143730;581;46012;-53
2021/08/16 12:03:03;;;;;;;8.98;4.35;;;;;;;;;;143725;604;47018;-54
2021/08/16 12:05:31;;;;;;;6.53;4.57;;;;;;;;;;143726;572;47010;-52
2021/08/16 12:07:58;;;;;;;7.28;4.78;;;;;;;;;;143728;616;45018;-53
2021/08/16 12:10:27;;;;;;;7.75;4.72;;;;;;;;;;143730;568;46012;-53
2021/08/16 12:13:02;;;;;;;6.62;4.87;;;;;;;;;;143725;566;47020;-53
2021/08/16 12:15:43;;;;;;;10.10;4.70;;;;;;;;;;143726;629;47010;-52
2021/08/16 12:18:10;;;;;;;8.15;4.55;;;;;;;;;;143728;575;46028;-53
2021/08/16 12:20:44;;;;;;;5.90;4.18;;;;;;;;;;143730;605;46012;-53
2021/08/16 12:23:22;;;;;;;7.60;4.60;;;;;;;;;;143724;581;47020;-52
2021/08/16 12:25:50;;;;;;;7.87;4.80;;;;;;;;;;143725;588;47010;-53
2021/08/16 12:28:17;;;;;;;7.62;4.40;;;;;;;;;;143727;571;46015;-53
2021/08/16 12:30:44;;;;;;;7.00;4.82;;;;;;;;;;143728;647;46022;-53
2021/08/16 12:33:18;;;;;;;7.82;4.93;;;;;;;;;;143731;626;47019;-52
2021/08/16 12:36:02;;;;;;;11.60;5.18;;;;;;;;;;143738;569;47010;-52
2021/08/16 12:38:31;;;;;;;9.00;4.93;;;;;;;;;;143739;742;45018;-52
2021/08/16 12:41:05;;;;;;;7.53;4.40;;;;;;;;;;143745;609;46022;-53
2021/08/16 12:43:40;;;;;;;9.15;4.95;;;;;;;;;;143740;766;47018;-52
2021/08/16 12:46:08;;;;;;;8.68;5.10;;;;;;;;;;143737;569;47010;-53
2021/08/16 12:48:44;;;;;;;7.30;4.53;;;;;;;;;;143741;572;45019;-52
2021/08/16 12:51:11;;;;;;;6.45;4.90;;;;;;;;;;143744;624;46023;-52
2021/08/16 12:53:39;;;;;;;7.12;4.87;;;;;;;;;;143740;575;47018;-53
2021/08/16 12:56:07;;;;;;;8.32;4.57;;;;;;;;;;143739;594;47010;-52
2021/08/16 12:58:34;;;;;;;9.02;4.82;;;;;;;;;;143741;564;45913;-53
2021/08/16 13:01:01;;;;;;;7.03;4.32;;;;;;;;;;143744;583;45022;-53
2021/08/16 13:03:28;;;;;;;5.85;4.43;;;;;;;;;;143740;679;47018;-53
2021/08/16 13:05:55;;;;;;;10.95;5.93;;;;;;;;;;143740;573;47010;-52
2021/08/16 13:08:22;;;;;;;10.15;5.32;;;;;;;;;;143742;609;45018;-53
2021/08/16 13:10:49;;;;;;;9.88;5.37;;;;;;;;;;143744;601;46022;-53
2021/08/16 13:13:17;;;;;;;10.05;4.90;;;;;;;;;;143739;598;47018;-53
2021/08/16 13:15:44;;;;;;;10.93;4.97;;;;;;;;;;143740;585;46010;-53
2021/08/16 13:18:11;;;;;;;6.75;4.82;;;;;;;;;;143741;578;45019;-52
2021/08/16 13:20:38;;;;;;;6.82;5.07;;;;;;;;;;143744;610;45023;-52
2021/08/16 13:23:05;;;;;;;9.75;4.93;;;;;;;;;;143740;578;47018;-52
2021/08/16 13:25:34;;;;;;;7.10;5.03;;;;;;;;;;143740;615;46011;-53
2021/08/16 13:28:01;;;;;;;7.95;5.32;;;;;;;;;;143741;661;45019;-52
2021/08/16 13:30:28;;;;;;;9.73;5.30;;;;;;;;;;143743;619;45022;-53
2021/08/16 13:32:55;;;;;;;8.68;5.28;;;;;;;;;;143740;593;47018;-52
2021/08/16 13:35:22;;;;;;;8.25;5.20;;;;;;;;;;143738;665;47010;-53
2021/08/16 13:37:50;;;;;;;7.90;4.75;;;;;;;;;;143743;655;45018;-52
2021/08/16 13:40:17;;;;;;;10.10;5.62;;;;;;;;;;143744;653;45022;-53
2021/08/16 13:42:44;;;;;;;8.90;5.18;;;;;;;;;;143740;676;47019;-52
2021/08/16 13:45:11;;;;;;;6.75;4.70;;;;;;;;;;143740;613;47010;-52
2021/08/16 13:47:38;;;;;;;8.73;5.10;;;;;;;;;;143741;566;46913;-52
2021/08/16 13:50:05;;;;;;;8.05;5.00;;;;;;;;;;143743;579;45023;-52
2021/08/16 13:52:32;;;;;;;7.03;5.15;;;;;;;;;;143739;598;47018;-52
2021/08/16 13:54:59;;;;;;;9.00;5.18;;;;;;;;;;143738;637;47022;-53
2021/08/16 13:57:27;;;;;;;7.40;5.10;;;;;;;;;;143742;570;45019;-52
2021/08/16 13:59:54;;;;;;;12.18;4.97;;;;;;;;;;143744;609;45022;-52
2021/08/16 14:02:21;;;;;;;7.53;5.20;;;;;;;;;;143740;640;47018;-52
2021/08/16 14:04:48;;;;;;;8.73;5.05;;;;;;;;;;143741;586;46010;-53
2021/08/16 14:07:15;;;;;;;8.77;4.65;;;;;;;;;;143743;569;45020;-52
2021/08/16 14:09:42;;;;;;;9.30;5.00;;;;;;;;;;143744;649;45020;-52
2021/08/16 14:12:09;;;;;;;6.85;5.12;;;;;;;;;;143739;599;47019;-53
2021/08/16 14:14:36;;;;;;;11.32;5.00;;;;;;;;;;143739;669;47010;-52
2021/08/16 14:17:03;;;;;;;7.85;4.70;;;;;;;;;;143741;600;45018;-53
2021/08/16 14:19:30;;;;;;;7.60;4.93;;;;;;;;;;143743;585;46023;-53
2021/08/16 14:21:58;;;;;;;8.23;4.95;;;;;;;;;;143738;672;47018;-53
2021/08/16 14:24:25;;;;;;;9.43;4.68;;;;;;;;;;143740;676;46027;-52
2021/08/16 14:26:52;;;;;;;9.02;4.80;;;;;;;;;;143742;685;45019;-53
2021/08/16 14:29:19;;;;;;;5.65;4.30;;;;;;;;;;143743;616;46012;-52
2021/08/16 14:31:46;;;;;;;6.87;5.03;;;;;;;;;;143741;666;47018;-53
2021/08/16 14:34:13;;;;;;;7.18;4.65;;;;;;;;;;143740;618;46025;-52
2021/08/16 14:36:41;;;;;;;10.05;5.00;;;;;;;;;;143742;601;45018;-53
2021/08/16 14:39:08;;;;;;;14.85;4.87;;;;;;;;;;143744;566;45022;-52
2021/08/16 14:41:35;;;;;;;5.03;4.00;;;;;;;;;;143741;675;47018;-52
2021/08/16 14:44:02;;;;;;;5.32;4.62;;;;;;;;;;143739;786;47010;-53
2021/08/16 14:46:29;;;;;;;6.87;5.03;;;;;;;;;;143740;633;45018;-53